createdAt,value
2022-09-09T00:02:11.422Z,17.80
2022-09-09T00:07:38.867Z,17.80
2022-09-09T00:12:56.807Z,17.70
2022-09-09T00:18:33.261Z,17.60
2022-09-09T00:23:50.347Z,17.60
2022-09-09T00:28:57.969Z,17.60
2022-09-09T00:34:25.594Z,17.60
2022-09-09T00:39:42.945Z,17.60
2022-09-09T00:45:25.069Z,17.60
2022-09-09T00:50:36.757Z,17.70
2022-09-09T00:55:54.870Z,17.70
2022-09-09T01:01:14.280Z,17.60
2022-09-09T01:06:40.317Z,17.60
2022-09-09T01:12:18.338Z,17.60
2022-09-09T01:17:54.560Z,17.60
2022-09-09T01:23:22.131Z,17.50
2022-09-09T01:28:29.500Z,17.50
2022-09-09T01:33:32.839Z,17.50
2022-09-09T01:38:36.861Z,17.50
2022-09-09T01:43:39.861Z,17.50
2022-09-09T01:48:44.176Z,17.60
2022-09-09T01:53:47.941Z,17.60
2022-09-09T01:58:53.388Z,17.60
2022-09-09T02:04:00.319Z,17.60
2022-09-09T02:09:08.184Z,17.50
2022-09-09T02:14:23.231Z,17.50
2022-09-09T02:19:33.615Z,17.50
2022-09-09T02:24:39.973Z,17.50
2022-09-09T02:29:45.533Z,17.50
2022-09-09T02:35:03.379Z,17.50
2022-09-09T02:40:13.188Z,17.50
2022-09-09T02:45:23.038Z,17.50
2022-09-09T02:50:39.059Z,17.50
2022-09-09T02:55:51.174Z,17.50
2022-09-09T03:00:54.183Z,17.50
2022-09-09T03:05:57.943Z,17.40
2022-09-09T03:11:04.882Z,17.40
2022-09-09T03:16:07.738Z,17.40
2022-09-09T03:21:10.658Z,17.40
2022-09-09T03:26:15.752Z,17.40
2022-09-09T03:31:20.789Z,17.40
2022-09-09T03:36:23.734Z,17.50
2022-09-09T03:41:27.370Z,17.60
2022-09-09T03:46:30.140Z,17.70
2022-09-09T03:51:33.031Z,17.70
2022-09-09T03:56:36.539Z,17.80
2022-09-09T04:01:39.315Z,17.80
2022-09-09T04:06:42.074Z,17.80
2022-09-09T04:11:44.958Z,17.80
2022-09-09T04:16:47.730Z,17.70
2022-09-09T04:21:52.217Z,17.70
2022-09-09T04:26:54.999Z,17.70
2022-09-09T04:31:57.924Z,17.70
2022-09-09T04:37:02.353Z,17.70
2022-09-09T04:42:05.300Z,17.60
2022-09-09T04:47:08.122Z,17.70
2022-09-09T04:52:10.961Z,17.70
2022-09-09T04:57:18.441Z,17.80
2022-09-09T05:02:21.805Z,17.80
2022-09-09T05:07:24.736Z,17.80
2022-09-09T05:12:27.810Z,17.90
2022-09-09T05:17:30.489Z,17.90
2022-09-09T05:22:33.198Z,18.00
2022-09-09T05:27:36.538Z,18.00
2022-09-09T05:32:39.332Z,18.00
2022-09-09T05:37:42.113Z,18.10
2022-09-09T05:42:44.807Z,18.20
2022-09-09T05:47:56.309Z,18.20
2022-09-09T05:52:59.002Z,18.40
2022-09-09T05:58:02.298Z,18.50
2022-09-09T06:03:05.356Z,18.60
2022-09-09T06:08:08.432Z,18.70
2022-09-09T06:13:11.147Z,18.90
2022-09-09T06:18:14.005Z,19.10
2022-09-09T06:23:17.229Z,19.20
2022-09-09T06:28:20.315Z,19.30
2022-09-09T06:33:23.054Z,19.40
2022-09-09T06:38:26.248Z,19.60
2022-09-09T06:43:31.809Z,19.60
2022-09-09T06:48:35.283Z,19.70
2022-09-09T06:53:40.366Z,19.80
2022-09-09T06:58:45.046Z,19.90
2022-09-09T07:03:51.847Z,20.00
2022-09-09T07:08:57.588Z,20.10
2022-09-09T07:14:01.676Z,20.10
2022-09-09T07:19:05.343Z,20.10
2022-09-09T07:24:11.216Z,20.10
2022-09-09T07:29:20.786Z,20.20
2022-09-09T07:34:23.960Z,20.40
2022-09-09T07:39:26.692Z,20.50
2022-09-09T07:44:29.563Z,20.70
2022-09-09T07:49:33.379Z,21.10
2022-09-09T07:54:36.505Z,21.50
2022-09-09T07:59:39.221Z,21.80
2022-09-09T08:04:41.977Z,22.00
2022-09-09T08:09:44.914Z,22.10
2022-09-09T08:14:47.866Z,22.20
2022-09-09T08:19:50.625Z,22.30
2022-09-09T08:24:54.348Z,22.40
2022-09-09T08:29:57.622Z,22.40
2022-09-09T08:35:01.600Z,22.50
2022-09-09T08:40:05.200Z,22.60
2022-09-09T08:45:50.387Z,22.80
2022-09-09T08:50:53.898Z,22.90
2022-09-09T08:56:00.507Z,23.20
2022-09-09T09:01:27.938Z,23.40
2022-09-09T09:06:39.644Z,23.60
2022-09-09T09:11:55.826Z,23.80
2022-09-09T09:17:07.991Z,23.80
2022-09-09T09:22:21.116Z,23.80
2022-09-09T09:27:43.388Z,24.00
2022-09-09T09:33:12.318Z,24.20
2022-09-09T09:43:55.586Z,24.50
2022-09-09T09:49:06.509Z,24.50
2022-09-09T09:54:18.021Z,24.60
2022-09-09T09:59:38.646Z,24.80
2022-09-09T10:04:42.743Z,24.90
2022-09-09T10:09:46.095Z,25.10
2022-09-09T10:15:40.038Z,25.30
2022-09-09T10:21:01.446Z,25.60
2022-09-09T10:26:24.156Z,25.80
2022-09-09T10:31:58.166Z,26.00
2022-09-09T10:37:01.706Z,26.20
2022-09-09T10:42:15.283Z,26.50
2022-09-09T10:47:39.875Z,27.00
2022-09-09T10:53:09.369Z,27.30
2022-09-09T10:58:28.673Z,27.50
2022-09-09T11:03:34.739Z,28.10
2022-09-09T11:08:40.391Z,28.80
2022-09-09T11:14:19.166Z,29.30
2022-09-09T11:19:37.091Z,29.90
2022-09-09T11:24:46.735Z,30.50
2022-09-09T11:30:53.858Z,30.60
2022-09-09T11:36:11.326Z,30.30
2022-09-09T11:41:21.096Z,30.10
2022-09-09T11:46:37.537Z,29.90
2022-09-09T11:51:41.087Z,29.20
2022-09-09T11:56:46.166Z,28.60
2022-09-09T12:02:13.154Z,28.30
2022-09-09T12:07:34.895Z,28.20
2022-09-09T12:12:43.180Z,27.90
2022-09-09T12:17:54.254Z,27.50
2022-09-09T12:23:18.429Z,27.20
2022-09-09T12:28:51.920Z,27.20
2022-09-09T12:33:54.684Z,27.30
2022-09-09T12:39:11.566Z,27.30
2022-09-09T12:44:14.332Z,27.30
2022-09-09T12:49:39.654Z,27.40
2022-09-09T12:54:54.829Z,27.40
2022-09-09T13:00:10.039Z,27.40
2022-09-09T13:05:40.052Z,27.40
2022-09-09T13:10:58.745Z,27.50
2022-09-09T13:16:09.456Z,27.50
2022-09-09T13:21:12.358Z,27.50
2022-09-09T13:26:28.338Z,27.30
2022-09-09T13:31:35.094Z,27.30
2022-09-09T13:36:38.016Z,27.20
2022-09-09T13:41:46.480Z,27.10
2022-09-09T13:46:49.285Z,27.10
2022-09-09T13:51:54.970Z,27.10
2022-09-09T13:56:58.860Z,27.10
2022-09-09T14:02:02.874Z,27.10
2022-09-09T14:07:05.656Z,27.10
2022-09-09T14:12:13.457Z,27.20
2022-09-09T14:17:16.156Z,27.30
2022-09-09T14:22:18.830Z,27.30
2022-09-09T14:27:21.691Z,27.40
2022-09-09T14:32:25.150Z,27.40
2022-09-09T14:37:28.974Z,27.30
2022-09-09T14:42:32.466Z,27.20
2022-09-09T14:47:35.573Z,27.10
2022-09-09T14:52:38.245Z,27.00
2022-09-09T14:57:41.362Z,26.90
2022-09-09T15:02:44.173Z,26.80
2022-09-09T15:07:47.051Z,26.70
2022-09-09T15:12:49.805Z,26.70
2022-09-09T15:17:52.456Z,26.60
2022-09-09T15:22:55.162Z,26.50
2022-09-09T15:27:58.121Z,26.60
2022-09-09T15:33:00.892Z,26.60
2022-09-09T15:38:06.027Z,26.60
2022-09-09T15:43:10.589Z,26.60
2022-09-09T15:48:13.829Z,26.60
2022-09-09T15:53:16.524Z,26.70
2022-09-09T15:58:20.385Z,27.00
2022-09-09T16:03:23.172Z,27.00
2022-09-09T16:08:26.036Z,26.90
2022-09-09T16:13:29.000Z,26.60
2022-09-09T16:18:52.806Z,26.40
2022-09-09T16:23:56.065Z,26.20
2022-09-09T16:29:02.263Z,25.80
2022-09-09T16:34:06.426Z,25.60
2022-09-09T16:39:17.189Z,25.40
2022-09-09T16:44:20.519Z,25.20
2022-09-09T16:49:23.359Z,25.00
2022-09-09T16:54:28.071Z,24.80
2022-09-09T16:59:32.625Z,24.60
2022-09-09T17:04:35.740Z,24.40
2022-09-09T17:09:38.442Z,24.20
2022-09-09T17:14:41.262Z,24.00
2022-09-09T17:19:44.125Z,23.80
2022-09-09T17:24:47.934Z,23.60
2022-09-09T17:29:50.749Z,23.50
2022-09-09T17:34:54.031Z,23.30
2022-09-09T17:39:56.842Z,23.20
2022-09-09T17:45:00.148Z,23.10
2022-09-09T17:50:03.138Z,22.80
2022-09-09T17:55:07.323Z,22.70
2022-09-09T18:00:11.456Z,22.60
2022-09-09T18:05:14.858Z,22.50
2022-09-09T18:10:17.757Z,22.40
2022-09-09T18:15:33.511Z,22.30
2022-09-09T18:20:44.680Z,22.30
2022-09-09T18:25:47.385Z,22.20
2022-09-09T18:30:50.203Z,22.20
2022-09-09T18:35:53.578Z,22.00
2022-09-09T18:40:56.377Z,22.00
2022-09-09T18:46:05.011Z,22.00
2022-09-09T18:51:10.605Z,21.90
2022-09-09T18:56:13.903Z,21.90
2022-09-09T19:01:16.805Z,21.90
2022-09-09T19:06:23.917Z,21.80
2022-09-09T19:11:28.887Z,21.70
2022-09-09T19:16:34.944Z,21.60
2022-09-09T19:21:41.005Z,21.60
2022-09-09T19:26:49.495Z,21.50
2022-09-09T19:32:36.402Z,21.40
2022-09-09T19:37:18.850Z,21.30
2022-09-09T19:42:21.948Z,21.10
2022-09-09T19:47:24.769Z,21.00
2022-09-09T19:52:27.540Z,20.90
2022-09-09T19:57:30.821Z,20.80
2022-09-09T20:02:33.824Z,20.80
2022-09-09T20:07:36.674Z,20.70
2022-09-09T20:12:39.394Z,20.80
2022-09-09T20:17:42.731Z,20.80
2022-09-09T20:22:45.447Z,20.80
2022-09-09T20:27:48.832Z,20.90
2022-09-09T20:32:51.559Z,20.90
2022-09-09T20:37:55.138Z,20.90
2022-09-09T20:42:58.233Z,21.00
2022-09-09T20:48:00.860Z,21.00
2022-09-09T20:53:04.333Z,21.00
2022-09-09T20:58:07.298Z,21.00
2022-09-09T21:03:10.071Z,21.10
2022-09-09T21:08:13.038Z,21.10
2022-09-09T21:13:16.347Z,21.00
2022-09-09T21:18:19.707Z,21.00
2022-09-09T21:23:23.114Z,21.00
2022-09-09T21:28:25.860Z,20.90
2022-09-09T21:33:29.248Z,20.90
2022-09-09T21:38:33.019Z,20.90
2022-09-09T21:43:35.926Z,20.90
2022-09-09T21:48:38.765Z,20.90
2022-09-09T21:53:43.438Z,20.90
2022-09-09T21:58:47.361Z,20.90
2022-09-09T22:03:50.471Z,20.90
2022-09-09T22:08:58.994Z,20.90
2022-09-09T22:14:02.388Z,20.90
2022-09-09T22:19:05.126Z,20.90
2022-09-09T22:24:07.876Z,20.80
2022-09-09T22:29:11.254Z,20.80
2022-09-09T22:34:14.078Z,20.80
2022-09-09T22:39:17.586Z,20.70
2022-09-09T22:44:20.821Z,20.70
2022-09-09T22:49:24.293Z,20.60
2022-09-09T22:54:27.123Z,20.50
2022-09-09T22:59:30.034Z,20.50
2022-09-09T23:04:33.029Z,20.50
2022-09-09T23:09:35.852Z,20.40
2022-09-09T23:14:38.669Z,20.40
2022-09-09T23:19:41.571Z,20.40
2022-09-09T23:24:44.272Z,20.40
2022-09-09T23:29:48.717Z,20.40
2022-09-09T23:34:51.773Z,20.40
2022-09-09T23:39:54.600Z,20.40
2022-09-09T23:44:57.464Z,20.40
2022-09-09T23:50:00.328Z,20.40
2022-09-09T23:55:04.204Z,20.40
